sensor_id;sensor_type;location;lat;lon;timestamp;P1;durP1;ratioP1;P2;durP2;ratioP2
10517;SDS011;5307;42.548;22.968;2023-04-08T00:01:35;30.65;;;16.02;;
10517;SDS011;5307;42.548;22.968;2023-04-08T00:04:02;23.85;;;13.43;;
10517;SDS011;5307;42.548;22.968;2023-04-08T00:06:29;20.25;;;11.63;;
10517;SDS011;5307;42.548;22.968;2023-04-08T00:08:58;18.90;;;11.52;;
10517;SDS011;5307;42.548;22.968;2023-04-08T00:11:25;24.08;;;14.00;;
10517;SDS011;5307;42.548;22.968;2023-04-08T00:13:52;27.17;;;13.20;;
10517;SDS011;5307;42.548;22.968;2023-04-08T00:16:19;21.00;;;13.73;;
10517;SDS011;5307;42.548;22.968;2023-04-08T00:18:46;21.77;;;11.73;;
10517;SDS011;5307;42.548;22.968;2023-04-08T00:21:13;18.90;;;11.32;;
10517;SDS011;5307;42.548;22.968;2023-04-08T00:23:42;13.02;;;9.38;;
10517;SDS011;5307;42.548;22.968;2023-04-08T00:26:10;16.08;;;9.90;;
10517;SDS011;5307;42.548;22.968;2023-04-08T00:28:39;18.65;;;10.77;;
10517;SDS011;5307;42.548;22.968;2023-04-08T00:31:06;17.40;;;9.30;;
10517;SDS011;5307;42.548;22.968;2023-04-08T00:33:33;14.63;;;9.27;;
10517;SDS011;5307;42.548;22.968;2023-04-08T00:36:00;14.63;;;9.80;;
10517;SDS011;5307;42.548;22.968;2023-04-08T00:38:27;19.63;;;10.40;;
10517;SDS011;5307;42.548;22.968;2023-04-08T00:40:54;17.77;;;10.10;;
10517;SDS011;5307;42.548;22.968;2023-04-08T00:43:24;16.42;;;10.68;;
10517;SDS011;5307;42.548;22.968;2023-04-08T00:45:51;28.38;;;10.48;;
10517;SDS011;5307;42.548;22.968;2023-04-08T00:48:17;17.48;;;10.02;;
10517;SDS011;5307;42.548;22.968;2023-04-08T00:50:44;19.80;;;11.32;;
10517;SDS011;5307;42.548;22.968;2023-04-08T00:53:11;19.23;;;11.10;;
10517;SDS011;5307;42.548;22.968;2023-04-08T00:55:41;18.05;;;10.18;;
10517;SDS011;5307;42.548;22.968;2023-04-08T00:58:08;20.23;;;10.30;;
10517;SDS011;5307;42.548;22.968;2023-04-08T01:00:36;17.50;;;11.50;;
10517;SDS011;5307;42.548;22.968;2023-04-08T01:03:08;20.08;;;11.05;;
10517;SDS011;5307;42.548;22.968;2023-04-08T01:05:43;25.95;;;13.45;;
10517;SDS011;5307;42.548;22.968;2023-04-08T01:08:22;14.85;;;9.70;;
10517;SDS011;5307;42.548;22.968;2023-04-08T01:10:57;15.63;;;10.85;;
10517;SDS011;5307;42.548;22.968;2023-04-08T01:13:27;16.92;;;10.13;;
10517;SDS011;5307;42.548;22.968;2023-04-08T01:16:01;15.70;;;10.30;;
10517;SDS011;5307;42.548;22.968;2023-04-08T01:18:28;17.33;;;10.85;;
10517;SDS011;5307;42.548;22.968;2023-04-08T01:20:56;21.63;;;11.48;;
10517;SDS011;5307;42.548;22.968;2023-04-08T01:23:27;18.77;;;11.00;;
10517;SDS011;5307;42.548;22.968;2023-04-08T01:26:02;22.83;;;13.70;;
10517;SDS011;5307;42.548;22.968;2023-04-08T01:28:29;27.98;;;15.27;;
10517;SDS011;5307;42.548;22.968;2023-04-08T01:30:58;28.67;;;16.45;;
10517;SDS011;5307;42.548;22.968;2023-04-08T01:33:27;26.95;;;14.82;;
10517;SDS011;5307;42.548;22.968;2023-04-08T01:35:54;22.58;;;14.75;;
10517;SDS011;5307;42.548;22.968;2023-04-08T01:38:23;23.25;;;14.25;;
10517;SDS011;5307;42.548;22.968;2023-04-08T01:40:51;25.33;;;15.30;;
10517;SDS011;5307;42.548;22.968;2023-04-08T01:43:21;24.52;;;16.02;;
10517;SDS011;5307;42.548;22.968;2023-04-08T01:45:50;24.33;;;15.82;;
10517;SDS011;5307;42.548;22.968;2023-04-08T01:48:22;27.45;;;16.38;;
10517;SDS011;5307;42.548;22.968;2023-04-08T01:50:50;28.88;;;17.73;;
10517;SDS011;5307;42.548;22.968;2023-04-08T01:53:18;28.55;;;17.58;;
10517;SDS011;5307;42.548;22.968;2023-04-08T01:55:45;34.78;;;19.52;;
10517;SDS011;5307;42.548;22.968;2023-04-08T01:58:16;30.80;;;18.23;;
10517;SDS011;5307;42.548;22.968;2023-04-08T02:00:46;33.83;;;17.85;;
10517;SDS011;5307;42.548;22.968;2023-04-08T02:03:16;39.58;;;18.33;;
10517;SDS011;5307;42.548;22.968;2023-04-08T02:05:43;32.67;;;17.77;;
10517;SDS011;5307;42.548;22.968;2023-04-08T02:08:10;33.70;;;18.67;;
10517;SDS011;5307;42.548;22.968;2023-04-08T02:10:37;30.85;;;18.77;;
10517;SDS011;5307;42.548;22.968;2023-04-08T02:13:04;33.70;;;17.38;;
10517;SDS011;5307;42.548;22.968;2023-04-08T02:15:33;28.50;;;15.60;;
10517;SDS011;5307;42.548;22.968;2023-04-08T02:18:04;19.60;;;13.57;;
10517;SDS011;5307;42.548;22.968;2023-04-08T02:20:41;24.48;;;14.50;;
10517;SDS011;5307;42.548;22.968;2023-04-08T02:23:13;27.40;;;13.48;;
10517;SDS011;5307;42.548;22.968;2023-04-08T02:25:44;25.02;;;13.98;;
10517;SDS011;5307;42.548;22.968;2023-04-08T02:28:13;26.08;;;13.15;;
10517;SDS011;5307;42.548;22.968;2023-04-08T02:30:43;22.50;;;14.48;;
10517;SDS011;5307;42.548;22.968;2023-04-08T02:33:15;26.58;;;16.40;;
10517;SDS011;5307;42.548;22.968;2023-04-08T02:35:45;30.42;;;18.67;;
10517;SDS011;5307;42.548;22.968;2023-04-08T02:38:13;33.03;;;18.70;;
10517;SDS011;5307;42.548;22.968;2023-04-08T02:40:40;32.90;;;18.45;;
10517;SDS011;5307;42.548;22.968;2023-04-08T02:43:08;21.35;;;14.32;;
10517;SDS011;5307;42.548;22.968;2023-04-08T02:45:37;22.70;;;13.52;;
10517;SDS011;5307;42.548;22.968;2023-04-08T02:48:06;20.92;;;11.73;;
10517;SDS011;5307;42.548;22.968;2023-04-08T02:50:34;18.90;;;11.00;;
10517;SDS011;5307;42.548;22.968;2023-04-08T02:55:56;19.75;;;12.00;;
10517;SDS011;5307;42.548;22.968;2023-04-08T02:58:23;19.42;;;12.23;;
10517;SDS011;5307;42.548;22.968;2023-04-08T03:00:50;20.45;;;11.57;;
10517;SDS011;5307;42.548;22.968;2023-04-08T03:03:17;23.27;;;12.02;;
10517;SDS011;5307;42.548;22.968;2023-04-08T03:05:52;22.38;;;12.48;;
10517;SDS011;5307;42.548;22.968;2023-04-08T03:08:19;22.33;;;14.70;;
10517;SDS011;5307;42.548;22.968;2023-04-08T03:10:46;23.65;;;14.65;;
10517;SDS011;5307;42.548;22.968;2023-04-08T03:13:13;23.42;;;13.13;;
10517;SDS011;5307;42.548;22.968;2023-04-08T03:15:40;19.27;;;13.23;;
10517;SDS011;5307;42.548;22.968;2023-04-08T03:18:07;22.60;;;12.63;;
10517;SDS011;5307;42.548;22.968;2023-04-08T03:20:34;21.80;;;13.20;;
10517;SDS011;5307;42.548;22.968;2023-04-08T03:23:02;21.33;;;13.50;;
10517;SDS011;5307;42.548;22.968;2023-04-08T03:25:29;25.40;;;17.30;;
10517;SDS011;5307;42.548;22.968;2023-04-08T03:27:57;23.83;;;15.45;;
10517;SDS011;5307;42.548;22.968;2023-04-08T03:30:24;27.83;;;17.55;;
10517;SDS011;5307;42.548;22.968;2023-04-08T03:32:51;24.42;;;15.98;;
10517;SDS011;5307;42.548;22.968;2023-04-08T03:35:18;21.25;;;14.27;;
10517;SDS011;5307;42.548;22.968;2023-04-08T03:37:44;22.02;;;13.90;;
10517;SDS011;5307;42.548;22.968;2023-04-08T03:40:13;20.42;;;14.02;;
10517;SDS011;5307;42.548;22.968;2023-04-08T03:42:40;25.38;;;14.93;;
10517;SDS011;5307;42.548;22.968;2023-04-08T03:45:07;21.92;;;14.68;;
10517;SDS011;5307;42.548;22.968;2023-04-08T03:47:34;23.05;;;15.65;;
10517;SDS011;5307;42.548;22.968;2023-04-08T03:50:01;22.58;;;15.30;;
10517;SDS011;5307;42.548;22.968;2023-04-08T03:52:28;25.75;;;16.35;;
10517;SDS011;5307;42.548;22.968;2023-04-08T03:54:55;23.15;;;15.48;;
10517;SDS011;5307;42.548;22.968;2023-04-08T03:57:24;25.75;;;16.83;;
10517;SDS011;5307;42.548;22.968;2023-04-08T03:59:50;27.40;;;16.98;;
10517;SDS011;5307;42.548;22.968;2023-04-08T04:02:17;27.23;;;17.67;;
10517;SDS011;5307;42.548;22.968;2023-04-08T04:04:44;25.30;;;17.17;;
10517;SDS011;5307;42.548;22.968;2023-04-08T04:07:11;23.95;;;16.98;;
10517;SDS011;5307;42.548;22.968;2023-04-08T04:09:38;27.23;;;17.27;;
10517;SDS011;5307;42.548;22.968;2023-04-08T04:12:04;33.90;;;18.90;;
10517;SDS011;5307;42.548;22.968;2023-04-08T04:14:33;38.15;;;20.70;;
10517;SDS011;5307;42.548;22.968;2023-04-08T04:17:00;43.28;;;23.35;;
10517;SDS011;5307;42.548;22.968;2023-04-08T04:19:28;45.15;;;22.92;;
10517;SDS011;5307;42.548;22.968;2023-04-08T04:21:55;51.70;;;27.15;;
10517;SDS011;5307;42.548;22.968;2023-04-08T04:24:22;33.45;;;19.45;;
10517;SDS011;5307;42.548;22.968;2023-04-08T04:26:49;30.63;;;16.25;;
10517;SDS011;5307;42.548;22.968;2023-04-08T04:29:15;25.38;;;14.90;;
10517;SDS011;5307;42.548;22.968;2023-04-08T04:31:43;24.63;;;15.90;;
10517;SDS011;5307;42.548;22.968;2023-04-08T04:34:11;26.63;;;14.65;;
10517;SDS011;5307;42.548;22.968;2023-04-08T04:36:38;25.55;;;14.70;;
10517;SDS011;5307;42.548;22.968;2023-04-08T04:39:05;24.08;;;15.57;;
10517;SDS011;5307;42.548;22.968;2023-04-08T04:50:35;40.03;;;21.20;;
10517;SDS011;5307;42.548;22.968;2023-04-08T04:53:02;35.50;;;20.13;;
10517;SDS011;5307;42.548;22.968;2023-04-08T04:55:29;38.63;;;20.67;;
10517;SDS011;5307;42.548;22.968;2023-04-08T04:57:56;39.75;;;20.17;;
10517;SDS011;5307;42.548;22.968;2023-04-08T05:00:22;29.38;;;18.00;;
10517;SDS011;5307;42.548;22.968;2023-04-08T05:02:49;36.38;;;18.38;;
10517;SDS011;5307;42.548;22.968;2023-04-08T05:05:18;33.40;;;20.15;;
10517;SDS011;5307;42.548;22.968;2023-04-08T05:07:45;49.03;;;23.77;;
10517;SDS011;5307;42.548;22.968;2023-04-08T05:10:12;29.45;;;15.02;;
10517;SDS011;5307;42.548;22.968;2023-04-08T05:12:38;39.92;;;19.48;;
10517;SDS011;5307;42.548;22.968;2023-04-08T05:15:06;65.70;;;33.92;;
10517;SDS011;5307;42.548;22.968;2023-04-08T05:17:33;50.55;;;26.23;;
10517;SDS011;5307;42.548;22.968;2023-04-08T05:20:00;24.65;;;16.27;;
10517;SDS011;5307;42.548;22.968;2023-04-08T05:22:29;24.25;;;15.15;;
10517;SDS011;5307;42.548;22.968;2023-04-08T05:24:56;27.55;;;16.30;;
10517;SDS011;5307;42.548;22.968;2023-04-08T05:27:22;28.10;;;16.45;;
10517;SDS011;5307;42.548;22.968;2023-04-08T05:29:49;28.40;;;17.92;;
10517;SDS011;5307;42.548;22.968;2023-04-08T05:32:19;34.10;;;17.83;;
10517;SDS011;5307;42.548;22.968;2023-04-08T05:34:46;27.58;;;17.85;;
10517;SDS011;5307;42.548;22.968;2023-04-08T05:37:12;24.55;;;17.23;;
10517;SDS011;5307;42.548;22.968;2023-04-08T05:39:41;31.30;;;18.00;;
10517;SDS011;5307;42.548;22.968;2023-04-08T05:42:07;26.73;;;13.63;;
10517;SDS011;5307;42.548;22.968;2023-04-08T05:44:35;20.73;;;13.13;;
10517;SDS011;5307;42.548;22.968;2023-04-08T05:47:01;21.92;;;13.52;;
10517;SDS011;5307;42.548;22.968;2023-04-08T05:49:28;26.42;;;14.05;;
10517;SDS011;5307;42.548;22.968;2023-04-08T05:51:55;20.88;;;14.32;;
10517;SDS011;5307;42.548;22.968;2023-04-08T05:54:22;22.83;;;12.80;;
10517;SDS011;5307;42.548;22.968;2023-04-08T05:56:50;20.35;;;13.48;;
10517;SDS011;5307;42.548;22.968;2023-04-08T05:59:17;18.85;;;13.07;;
10517;SDS011;5307;42.548;22.968;2023-04-08T06:01:43;22.60;;;14.10;;
10517;SDS011;5307;42.548;22.968;2023-04-08T06:04:10;23.40;;;13.80;;
10517;SDS011;5307;42.548;22.968;2023-04-08T06:06:37;22.17;;;14.50;;
10517;SDS011;5307;42.548;22.968;2023-04-08T06:09:04;24.20;;;15.07;;
10517;SDS011;5307;42.548;22.968;2023-04-08T06:11:31;24.90;;;16.52;;
10517;SDS011;5307;42.548;22.968;2023-04-08T06:13:59;25.55;;;16.08;;
10517;SDS011;5307;42.548;22.968;2023-04-08T06:16:26;28.17;;;17.02;;
10517;SDS011;5307;42.548;22.968;2023-04-08T06:18:53;26.98;;;16.52;;
10517;SDS011;5307;42.548;22.968;2023-04-08T06:21:20;34.13;;;18.00;;
10517;SDS011;5307;42.548;22.968;2023-04-08T06:23:47;31.55;;;17.88;;
10517;SDS011;5307;42.548;22.968;2023-04-08T06:26:14;30.75;;;18.30;;
10517;SDS011;5307;42.548;22.968;2023-04-08T06:28:41;34.42;;;18.08;;
10517;SDS011;5307;42.548;22.968;2023-04-08T06:31:09;30.48;;;17.80;;
10517;SDS011;5307;42.548;22.968;2023-04-08T06:33:36;27.30;;;16.02;;
10517;SDS011;5307;42.548;22.968;2023-04-08T06:36:03;34.90;;;18.90;;
10517;SDS011;5307;42.548;22.968;2023-04-08T06:38:30;35.55;;;19.23;;
10517;SDS011;5307;42.548;22.968;2023-04-08T06:41:00;44.53;;;25.35;;
10517;SDS011;5307;42.548;22.968;2023-04-08T06:43:28;35.08;;;21.08;;
10517;SDS011;5307;42.548;22.968;2023-04-08T06:45:55;41.30;;;22.33;;
10517;SDS011;5307;42.548;22.968;2023-04-08T06:48:26;45.75;;;24.05;;
10517;SDS011;5307;42.548;22.968;2023-04-08T06:50:54;41.55;;;23.58;;
10517;SDS011;5307;42.548;22.968;2023-04-08T06:53:21;47.17;;;23.85;;
10517;SDS011;5307;42.548;22.968;2023-04-08T06:55:48;43.53;;;23.80;;
10517;SDS011;5307;42.548;22.968;2023-04-08T06:58:15;28.63;;;18.88;;
10517;SDS011;5307;42.548;22.968;2023-04-08T07:00:42;33.63;;;18.23;;
10517;SDS011;5307;42.548;22.968;2023-04-08T07:03:09;27.15;;;17.00;;
10517;SDS011;5307;42.548;22.968;2023-04-08T07:05:37;29.35;;;18.15;;
10517;SDS011;5307;42.548;22.968;2023-04-08T07:08:04;32.13;;;17.52;;
10517;SDS011;5307;42.548;22.968;2023-04-08T07:10:31;29.23;;;19.45;;
10517;SDS011;5307;42.548;22.968;2023-04-08T07:12:59;23.27;;;14.82;;
10517;SDS011;5307;42.548;22.968;2023-04-08T07:15:26;30.15;;;18.30;;
10517;SDS011;5307;42.548;22.968;2023-04-08T07:17:53;27.55;;;17.48;;
10517;SDS011;5307;42.548;22.968;2023-04-08T07:20:20;27.55;;;15.65;;
10517;SDS011;5307;42.548;22.968;2023-04-08T07:22:49;20.75;;;15.02;;
10517;SDS011;5307;42.548;22.968;2023-04-08T07:25:16;25.27;;;16.33;;
10517;SDS011;5307;42.548;22.968;2023-04-08T07:27:43;27.20;;;16.00;;
10517;SDS011;5307;42.548;22.968;2023-04-08T07:30:10;19.90;;;12.75;;
10517;SDS011;5307;42.548;22.968;2023-04-08T07:32:38;20.65;;;12.85;;
10517;SDS011;5307;42.548;22.968;2023-04-08T07:35:05;39.70;;;23.88;;
10517;SDS011;5307;42.548;22.968;2023-04-08T07:37:32;24.92;;;14.25;;
10517;SDS011;5307;42.548;22.968;2023-04-08T07:40:00;21.23;;;13.60;;
10517;SDS011;5307;42.548;22.968;2023-04-08T07:42:27;20.35;;;13.82;;
10517;SDS011;5307;42.548;22.968;2023-04-08T07:44:54;17.85;;;11.10;;
10517;SDS011;5307;42.548;22.968;2023-04-08T07:47:20;17.13;;;11.75;;
10517;SDS011;5307;42.548;22.968;2023-04-08T07:49:47;17.75;;;12.07;;
10517;SDS011;5307;42.548;22.968;2023-04-08T07:52:14;23.58;;;13.43;;
10517;SDS011;5307;42.548;22.968;2023-04-08T07:54:41;18.80;;;12.02;;
10517;SDS011;5307;42.548;22.968;2023-04-08T07:57:10;20.63;;;12.38;;
10517;SDS011;5307;42.548;22.968;2023-04-08T07:59:36;22.15;;;12.50;;
10517;SDS011;5307;42.548;22.968;2023-04-08T08:02:03;15.90;;;10.45;;
10517;SDS011;5307;42.548;22.968;2023-04-08T08:04:30;14.77;;;10.70;;
10517;SDS011;5307;42.548;22.968;2023-04-08T08:06:58;17.50;;;10.77;;
10517;SDS011;5307;42.548;22.968;2023-04-08T08:09:25;15.55;;;11.27;;
10517;SDS011;5307;42.548;22.968;2023-04-08T08:11:51;14.43;;;10.93;;
10517;SDS011;5307;42.548;22.968;2023-04-08T08:14:20;19.27;;;11.63;;
10517;SDS011;5307;42.548;22.968;2023-04-08T08:16:46;20.85;;;10.23;;
10517;SDS011;5307;42.548;22.968;2023-04-08T08:19:13;14.68;;;9.75;;
10517;SDS011;5307;42.548;22.968;2023-04-08T08:21:40;16.60;;;10.45;;
10517;SDS011;5307;42.548;22.968;2023-04-08T08:24:07;19.00;;;10.35;;
10517;SDS011;5307;42.548;22.968;2023-04-08T08:26:34;16.35;;;9.85;;
10517;SDS011;5307;42.548;22.968;2023-04-08T08:29:02;16.77;;;10.50;;
10517;SDS011;5307;42.548;22.968;2023-04-08T08:31:30;19.95;;;11.32;;
10517;SDS011;5307;42.548;22.968;2023-04-08T08:33:57;15.27;;;11.65;;
10517;SDS011;5307;42.548;22.968;2023-04-08T08:36:24;15.13;;;10.70;;
10517;SDS011;5307;42.548;22.968;2023-04-08T08:38:51;17.60;;;10.25;;
10517;SDS011;5307;42.548;22.968;2023-04-08T08:41:18;18.42;;;10.68;;
10517;SDS011;5307;42.548;22.968;2023-04-08T08:43:45;17.55;;;10.00;;
10517;SDS011;5307;42.548;22.968;2023-04-08T08:46:14;25.17;;;11.15;;
10517;SDS011;5307;42.548;22.968;2023-04-08T08:48:44;19.77;;;11.40;;
10517;SDS011;5307;42.548;22.968;2023-04-08T08:51:11;12.98;;;9.50;;
10517;SDS011;5307;42.548;22.968;2023-04-08T08:53:39;14.07;;;10.20;;
10517;SDS011;5307;42.548;22.968;2023-04-08T08:56:09;13.43;;;8.48;;
10517;SDS011;5307;42.548;22.968;2023-04-08T08:58:36;13.05;;;8.88;;
10517;SDS011;5307;42.548;22.968;2023-04-08T09:04:10;14.38;;;9.20;;
10517;SDS011;5307;42.548;22.968;2023-04-08T09:06:40;14.48;;;9.18;;
10517;SDS011;5307;42.548;22.968;2023-04-08T09:09:07;13.88;;;7.88;;
10517;SDS011;5307;42.548;22.968;2023-04-08T09:11:38;12.85;;;9.07;;
10517;SDS011;5307;42.548;22.968;2023-04-08T09:14:16;13.35;;;8.02;;
10517;SDS011;5307;42.548;22.968;2023-04-08T09:16:43;11.32;;;8.23;;
10517;SDS011;5307;42.548;22.968;2023-04-08T09:19:12;17.98;;;9.80;;
10517;SDS011;5307;42.548;22.968;2023-04-08T09:21:40;16.55;;;10.15;;
10517;SDS011;5307;42.548;22.968;2023-04-08T09:24:08;13.30;;;8.18;;
10517;SDS011;5307;42.548;22.968;2023-04-08T09:26:36;14.05;;;7.45;;
10517;SDS011;5307;42.548;22.968;2023-04-08T09:29:03;11.70;;;7.43;;
10517;SDS011;5307;42.548;22.968;2023-04-08T09:31:32;39.45;;;27.80;;
10517;SDS011;5307;42.548;22.968;2023-04-08T09:34:00;11.10;;;7.75;;
10517;SDS011;5307;42.548;22.968;2023-04-08T09:36:37;12.63;;;8.35;;
10517;SDS011;5307;42.548;22.968;2023-04-08T09:39:04;13.80;;;8.23;;
10517;SDS011;5307;42.548;22.968;2023-04-08T09:41:32;12.02;;;7.80;;
10517;SDS011;5307;42.548;22.968;2023-04-08T09:44:01;11.50;;;6.55;;
10517;SDS011;5307;42.548;22.968;2023-04-08T09:46:31;13.55;;;8.40;;
10517;SDS011;5307;42.548;22.968;2023-04-08T09:49:04;15.98;;;8.40;;
10517;SDS011;5307;42.548;22.968;2023-04-08T09:51:33;14.35;;;7.43;;
10517;SDS011;5307;42.548;22.968;2023-04-08T09:54:05;14.95;;;6.85;;
10517;SDS011;5307;42.548;22.968;2023-04-08T09:56:39;18.33;;;7.70;;
10517;SDS011;5307;42.548;22.968;2023-04-08T09:59:11;12.25;;;7.22;;
10517;SDS011;5307;42.548;22.968;2023-04-08T10:01:43;20.75;;;8.77;;
10517;SDS011;5307;42.548;22.968;2023-04-08T10:04:14;12.90;;;7.05;;
10517;SDS011;5307;42.548;22.968;2023-04-08T10:06:44;10.95;;;7.07;;
10517;SDS011;5307;42.548;22.968;2023-04-08T10:09:19;13.45;;;7.78;;
10517;SDS011;5307;42.548;22.968;2023-04-08T10:11:47;9.07;;;7.35;;
10517;SDS011;5307;42.548;22.968;2023-04-08T10:14:14;17.75;;;8.00;;
10517;SDS011;5307;42.548;22.968;2023-04-08T10:16:41;7.95;;;6.38;;
10517;SDS011;5307;42.548;22.968;2023-04-08T10:22:10;14.88;;;7.78;;
10517;SDS011;5307;42.548;22.968;2023-04-08T10:25:30;10.23;;;6.82;;
10517;SDS011;5307;42.548;22.968;2023-04-08T10:27:58;15.23;;;6.70;;
10517;SDS011;5307;42.548;22.968;2023-04-08T10:30:38;13.57;;;6.10;;
10517;SDS011;5307;42.548;22.968;2023-04-08T10:33:09;10.02;;;6.60;;
10517;SDS011;5307;42.548;22.968;2023-04-08T10:35:38;11.30;;;5.65;;
10517;SDS011;5307;42.548;22.968;2023-04-08T10:38:07;10.27;;;6.25;;
10517;SDS011;5307;42.548;22.968;2023-04-08T10:40:37;9.50;;;6.85;;
10517;SDS011;5307;42.548;22.968;2023-04-08T10:43:06;9.07;;;5.85;;
10517;SDS011;5307;42.548;22.968;2023-04-08T10:45:32;11.07;;;5.85;;
10517;SDS011;5307;42.548;22.968;2023-04-08T10:50:43;11.05;;;7.57;;
10517;SDS011;5307;42.548;22.968;2023-04-08T10:53:10;8.75;;;6.15;;
10517;SDS011;5307;42.548;22.968;2023-04-08T10:55:38;17.00;;;7.82;;
10517;SDS011;5307;42.548;22.968;2023-04-08T10:58:08;15.85;;;8.07;;
10517;SDS011;5307;42.548;22.968;2023-04-08T11:00:37;9.82;;;5.72;;
10517;SDS011;5307;42.548;22.968;2023-04-08T11:03:05;20.23;;;9.07;;
10517;SDS011;5307;42.548;22.968;2023-04-08T11:05:34;17.13;;;6.55;;
10517;SDS011;5307;42.548;22.968;2023-04-08T11:08:02;9.00;;;6.40;;
10517;SDS011;5307;42.548;22.968;2023-04-08T11:10:30;17.42;;;7.07;;
10517;SDS011;5307;42.548;22.968;2023-04-08T11:12:58;6.28;;;4.75;;
10517;SDS011;5307;42.548;22.968;2023-04-08T11:15:28;11.48;;;6.70;;
10517;SDS011;5307;42.548;22.968;2023-04-08T11:17:56;13.95;;;8.35;;
10517;SDS011;5307;42.548;22.968;2023-04-08T11:20:23;15.32;;;7.60;;
10517;SDS011;5307;42.548;22.968;2023-04-08T11:22:50;10.00;;;5.63;;
10517;SDS011;5307;42.548;22.968;2023-04-08T11:25:17;9.15;;;5.40;;
10517;SDS011;5307;42.548;22.968;2023-04-08T11:27:44;6.95;;;5.57;;
10517;SDS011;5307;42.548;22.968;2023-04-08T11:30:13;9.00;;;5.47;;
10517;SDS011;5307;42.548;22.968;2023-04-08T11:32:40;8.52;;;5.90;;
10517;SDS011;5307;42.548;22.968;2023-04-08T11:35:07;6.53;;;5.35;;
10517;SDS011;5307;42.548;22.968;2023-04-08T11:37:38;8.50;;;5.68;;
10517;SDS011;5307;42.548;22.968;2023-04-08T11:40:07;6.45;;;5.25;;
10517;SDS011;5307;42.548;22.968;2023-04-08T11:42:34;22.73;;;11.65;;
10517;SDS011;5307;42.548;22.968;2023-04-08T11:45:01;11.73;;;6.53;;
10517;SDS011;5307;42.548;22.968;2023-04-08T11:47:37;8.32;;;6.80;;
10517;SDS011;5307;42.548;22.968;2023-04-08T11:50:05;5.70;;;4.80;;
10517;SDS011;5307;42.548;22.968;2023-04-08T11:52:42;7.55;;;5.60;;
10517;SDS011;5307;42.548;22.968;2023-04-08T11:55:10;8.50;;;6.22;;
10517;SDS011;5307;42.548;22.968;2023-04-08T11:57:37;9.25;;;6.32;;
10517;SDS011;5307;42.548;22.968;2023-04-08T12:00:05;6.00;;;4.80;;
10517;SDS011;5307;42.548;22.968;2023-04-08T12:02:33;10.05;;;6.13;;
10517;SDS011;5307;42.548;22.968;2023-04-08T12:05:02;15.95;;;9.02;;
10517;SDS011;5307;42.548;22.968;2023-04-08T12:09:58;17.92;;;5.70;;
10517;SDS011;5307;42.548;22.968;2023-04-08T12:12:25;5.35;;;4.70;;
10517;SDS011;5307;42.548;22.968;2023-04-08T12:14:52;5.15;;;4.18;;
10517;SDS011;5307;42.548;22.968;2023-04-08T12:17:19;5.78;;;4.70;;
10517;SDS011;5307;42.548;22.968;2023-04-08T12:19:45;7.77;;;5.37;;
10517;SDS011;5307;42.548;22.968;2023-04-08T12:22:15;6.38;;;4.60;;
10517;SDS011;5307;42.548;22.968;2023-04-08T12:24:41;8.68;;;5.93;;
10517;SDS011;5307;42.548;22.968;2023-04-08T12:27:08;8.15;;;5.80;;
10517;SDS011;5307;42.548;22.968;2023-04-08T12:29:35;10.75;;;7.18;;
10517;SDS011;5307;42.548;22.968;2023-04-08T12:32:02;11.80;;;7.55;;
10517;SDS011;5307;42.548;22.968;2023-04-08T12:34:29;7.13;;;4.60;;
10517;SDS011;5307;42.548;22.968;2023-04-08T12:36:56;7.55;;;4.30;;
10517;SDS011;5307;42.548;22.968;2023-04-08T12:39:25;3.67;;;3.13;;
10517;SDS011;5307;42.548;22.968;2023-04-08T12:41:52;6.93;;;4.45;;
10517;SDS011;5307;42.548;22.968;2023-04-08T12:44:19;4.90;;;3.85;;
10517;SDS011;5307;42.548;22.968;2023-04-08T12:46:46;4.65;;;3.83;;
10517;SDS011;5307;42.548;22.968;2023-04-08T12:49:13;5.10;;;3.78;;
10517;SDS011;5307;42.548;22.968;2023-04-08T12:51:40;5.05;;;4.00;;
10517;SDS011;5307;42.548;22.968;2023-04-08T12:54:07;6.18;;;5.03;;
10517;SDS011;5307;42.548;22.968;2023-04-08T12:56:35;4.75;;;4.03;;
10517;SDS011;5307;42.548;22.968;2023-04-08T12:59:03;7.28;;;4.43;;
10517;SDS011;5307;42.548;22.968;2023-04-08T13:01:30;6.43;;;4.32;;
10517;SDS011;5307;42.548;22.968;2023-04-08T13:03:56;8.68;;;6.63;;
10517;SDS011;5307;42.548;22.968;2023-04-08T13:06:23;9.60;;;6.30;;
10517;SDS011;5307;42.548;22.968;2023-04-08T13:08:52;11.57;;;6.97;;
10517;SDS011;5307;42.548;22.968;2023-04-08T13:11:18;9.82;;;4.57;;
10517;SDS011;5307;42.548;22.968;2023-04-08T13:13:47;13.57;;;7.18;;
10517;SDS011;5307;42.548;22.968;2023-04-08T13:16:14;12.52;;;6.68;;
10517;SDS011;5307;42.548;22.968;2023-04-08T13:18:41;11.88;;;7.70;;
10517;SDS011;5307;42.548;22.968;2023-04-08T13:21:08;11.60;;;7.93;;
10517;SDS011;5307;42.548;22.968;2023-04-08T13:23:35;15.00;;;9.18;;
10517;SDS011;5307;42.548;22.968;2023-04-08T13:26:02;9.80;;;7.22;;
10517;SDS011;5307;42.548;22.968;2023-04-08T13:28:29;12.68;;;7.30;;
10517;SDS011;5307;42.548;22.968;2023-04-08T13:30:57;9.40;;;6.65;;
10517;SDS011;5307;42.548;22.968;2023-04-08T13:33:24;12.48;;;8.18;;
10517;SDS011;5307;42.548;22.968;2023-04-08T13:35:51;13.45;;;8.82;;
10517;SDS011;5307;42.548;22.968;2023-04-08T13:38:18;9.50;;;6.75;;
10517;SDS011;5307;42.548;22.968;2023-04-08T13:40:44;15.93;;;8.35;;
10517;SDS011;5307;42.548;22.968;2023-04-08T13:43:11;11.23;;;7.35;;
10517;SDS011;5307;42.548;22.968;2023-04-08T13:45:38;9.05;;;6.35;;
10517;SDS011;5307;42.548;22.968;2023-04-08T13:48:07;8.90;;;6.22;;
10517;SDS011;5307;42.548;22.968;2023-04-08T13:50:34;11.05;;;7.25;;
10517;SDS011;5307;42.548;22.968;2023-04-08T13:53:03;11.93;;;6.13;;
10517;SDS011;5307;42.548;22.968;2023-04-08T13:55:29;7.88;;;6.75;;
10517;SDS011;5307;42.548;22.968;2023-04-08T13:57:56;14.40;;;9.55;;
10517;SDS011;5307;42.548;22.968;2023-04-08T14:00:23;22.27;;;14.68;;
10517;SDS011;5307;42.548;22.968;2023-04-08T14:02:51;8.55;;;7.07;;
10517;SDS011;5307;42.548;22.968;2023-04-08T14:05:19;13.00;;;7.88;;
10517;SDS011;5307;42.548;22.968;2023-04-08T14:07:46;10.93;;;8.27;;
10517;SDS011;5307;42.548;22.968;2023-04-08T14:10:13;11.80;;;8.10;;
10517;SDS011;5307;42.548;22.968;2023-04-08T14:12:41;11.45;;;8.45;;
10517;SDS011;5307;42.548;22.968;2023-04-08T14:15:08;13.90;;;8.85;;
10517;SDS011;5307;42.548;22.968;2023-04-08T14:17:35;14.88;;;6.97;;
10517;SDS011;5307;42.548;22.968;2023-04-08T14:20:02;11.52;;;7.20;;
10517;SDS011;5307;42.548;22.968;2023-04-08T14:22:32;13.30;;;8.90;;
10517;SDS011;5307;42.548;22.968;2023-04-08T14:24:58;12.25;;;8.50;;
10517;SDS011;5307;42.548;22.968;2023-04-08T14:27:25;15.52;;;9.95;;
10517;SDS011;5307;42.548;22.968;2023-04-08T14:29:53;12.35;;;8.77;;
10517;SDS011;5307;42.548;22.968;2023-04-08T14:32:20;11.85;;;8.40;;
10517;SDS011;5307;42.548;22.968;2023-04-08T14:34:47;15.15;;;9.18;;
10517;SDS011;5307;42.548;22.968;2023-04-08T14:37:14;13.55;;;8.27;;
10517;SDS011;5307;42.548;22.968;2023-04-08T14:39:43;18.67;;;10.02;;
10517;SDS011;5307;42.548;22.968;2023-04-08T14:42:10;16.92;;;10.73;;
10517;SDS011;5307;42.548;22.968;2023-04-08T14:44:37;14.60;;;10.98;;
10517;SDS011;5307;42.548;22.968;2023-04-08T14:47:04;23.25;;;11.77;;
10517;SDS011;5307;42.548;22.968;2023-04-08T14:49:30;15.68;;;8.90;;
10517;SDS011;5307;42.548;22.968;2023-04-08T14:51:57;14.07;;;10.73;;
10517;SDS011;5307;42.548;22.968;2023-04-08T14:54:24;18.20;;;9.82;;
10517;SDS011;5307;42.548;22.968;2023-04-08T14:56:55;16.77;;;10.57;;